createdAt,value
2019-02-25T00:00:52.045Z,13.27
2019-02-25T00:03:20.875Z,13.13
2019-02-25T00:05:58.509Z,12.00
2019-02-25T00:08:27.090Z,10.57
2019-02-25T00:10:58.539Z,13.43
2019-02-25T00:13:27.441Z,10.70
2019-02-25T00:16:05.454Z,13.83
2019-02-25T00:18:34.426Z,12.27
2019-02-25T00:21:04.752Z,11.73
2019-02-25T00:23:33.584Z,11.57
2019-02-25T00:26:02.349Z,12.23
2019-02-25T00:28:30.841Z,9.73
2019-02-25T00:30:59.571Z,9.53
2019-02-25T00:33:28.310Z,11.87
2019-02-25T00:35:59.377Z,9.83
2019-02-25T00:38:29.147Z,11.80
2019-02-25T00:41:00.767Z,11.83
2019-02-25T00:43:29.534Z,12.57
2019-02-25T00:45:58.335Z,11.83
2019-02-25T00:48:28.636Z,12.97
2019-02-25T00:50:57.329Z,10.10
2019-02-25T00:53:26.123Z,10.60
2019-02-25T00:55:54.857Z,16.43
2019-02-25T00:58:23.658Z,13.87
2019-02-25T01:00:52.352Z,10.57
2019-02-25T01:03:21.106Z,13.83
2019-02-25T01:05:50.489Z,9.80
2019-02-25T01:08:19.224Z,10.30
2019-02-25T01:10:48.011Z,12.13
2019-02-25T01:13:16.809Z,16.53
2019-02-25T01:15:45.713Z,11.30
2019-02-25T01:18:14.498Z,12.47
2019-02-25T01:20:43.265Z,10.07
2019-02-25T01:23:12.137Z,10.70
2019-02-25T01:25:41.019Z,13.20
2019-02-25T01:28:09.846Z,10.63
2019-02-25T01:30:43.989Z,10.97
2019-02-25T01:33:12.898Z,12.30
2019-02-25T01:35:41.347Z,12.17
2019-02-25T01:38:09.783Z,11.43
2019-02-25T01:40:38.207Z,11.10
2019-02-25T01:43:06.640Z,13.40
2019-02-25T01:45:35.059Z,11.30
2019-02-25T01:48:03.571Z,11.77
2019-02-25T01:50:32.054Z,12.33
2019-02-25T01:53:00.491Z,10.47
2019-02-25T01:55:28.912Z,11.00
2019-02-25T01:57:57.342Z,15.97
2019-02-25T02:00:25.771Z,15.40
2019-02-25T02:02:54.203Z,13.80
2019-02-25T02:05:24.404Z,14.83
2019-02-25T02:07:52.782Z,13.93
2019-02-25T02:10:21.213Z,10.57
2019-02-25T02:12:50.388Z,14.20
2019-02-25T02:15:22.267Z,11.87
2019-02-25T02:17:50.701Z,9.53
2019-02-25T02:20:19.119Z,13.37
2019-02-25T02:22:47.555Z,12.13
2019-02-25T02:25:16.249Z,12.97
2019-02-25T02:27:44.675Z,10.80
2019-02-25T02:30:16.197Z,11.07
2019-02-25T02:32:44.629Z,10.90
2019-02-25T02:35:13.059Z,10.43
2019-02-25T02:37:41.483Z,11.50
2019-02-25T02:40:13.532Z,13.57
2019-02-25T02:42:54.083Z,14.63
2019-02-25T02:45:37.432Z,16.03
2019-02-25T02:48:12.019Z,14.50
2019-02-25T02:50:40.423Z,13.70
2019-02-25T02:53:08.860Z,14.07
2019-02-25T02:55:37.280Z,12.20
2019-02-25T02:58:05.717Z,16.77
2019-02-25T03:00:34.139Z,12.67
2019-02-25T03:03:02.580Z,14.20
2019-02-25T03:05:31.017Z,11.23
2019-02-25T03:07:59.431Z,10.60
2019-02-25T03:10:27.848Z,11.63
2019-02-25T03:12:56.283Z,10.87
2019-02-25T03:15:24.707Z,12.53
2019-02-25T03:17:53.167Z,13.37
2019-02-25T03:20:21.641Z,12.93
2019-02-25T03:22:50.503Z,12.00
2019-02-25T03:25:19.365Z,12.07
2019-02-25T03:27:47.885Z,13.70
2019-02-25T03:30:18.711Z,12.30
2019-02-25T03:32:47.212Z,11.90
2019-02-25T03:35:15.631Z,11.80
2019-02-25T03:37:44.144Z,11.30
2019-02-25T03:40:17.059Z,13.77
2019-02-25T03:42:45.566Z,12.40
2019-02-25T03:45:17.953Z,10.73
2019-02-25T03:47:46.455Z,14.27
2019-02-25T03:50:15.234Z,12.27
2019-02-25T03:52:43.785Z,11.20
2019-02-25T03:55:19.541Z,12.73
2019-02-25T03:57:47.958Z,13.73
2019-02-25T04:00:24.042Z,14.10
2019-02-25T04:02:52.457Z,12.13
2019-02-25T04:05:20.890Z,10.53
2019-02-25T04:07:49.309Z,11.87
2019-02-25T04:10:17.732Z,13.47
2019-02-25T04:12:46.235Z,12.27
2019-02-25T04:15:21.023Z,12.67
2019-02-25T04:17:49.436Z,11.63
2019-02-25T04:20:18.043Z,12.00
2019-02-25T04:22:46.452Z,13.37
2019-02-25T04:25:14.947Z,11.03
2019-02-25T04:27:43.391Z,13.00
2019-02-25T04:30:14.612Z,15.17
2019-02-25T04:32:43.085Z,11.63
2019-02-25T04:35:12.811Z,12.67
2019-02-25T04:37:41.244Z,11.13
2019-02-25T04:40:14.387Z,11.90
2019-02-25T04:42:42.810Z,12.73
2019-02-25T04:45:13.839Z,17.57
2019-02-25T04:47:42.257Z,12.27
2019-02-25T04:50:11.835Z,11.57
2019-02-25T04:52:40.248Z,12.27
2019-02-25T04:55:10.315Z,11.43
2019-02-25T04:57:38.812Z,13.90
2019-02-25T05:00:12.862Z,15.20
2019-02-25T05:02:41.275Z,12.27
2019-02-25T05:05:09.869Z,13.20
2019-02-25T05:07:38.283Z,13.07
2019-02-25T05:10:11.702Z,12.23
2019-02-25T05:12:41.765Z,12.30
2019-02-25T05:15:12.060Z,15.87
2019-02-25T05:17:40.487Z,12.33
2019-02-25T05:20:09.291Z,14.60
2019-02-25T05:22:37.864Z,14.33
2019-02-25T05:25:08.740Z,13.57
2019-02-25T05:27:39.812Z,12.67
2019-02-25T05:30:14.186Z,13.05
2019-02-25T05:32:42.867Z,13.93
2019-02-25T05:35:15.483Z,13.87
2019-02-25T05:37:43.967Z,13.03
2019-02-25T05:40:19.473Z,11.20
2019-02-25T05:42:47.911Z,13.33
2019-02-25T05:45:16.585Z,14.97
2019-02-25T05:47:47.815Z,12.90
2019-02-25T05:50:22.451Z,12.43
2019-02-25T05:52:53.863Z,12.20
2019-02-25T05:55:22.298Z,15.30
2019-02-25T05:57:50.828Z,11.27
2019-02-25T06:00:22.348Z,14.10
2019-02-25T06:02:50.835Z,14.93
2019-02-25T06:05:19.259Z,13.87
2019-02-25T06:07:47.784Z,13.20
2019-02-25T06:10:16.207Z,16.67
2019-02-25T06:12:44.639Z,14.97
2019-02-25T06:15:20.659Z,14.87
2019-02-25T06:17:49.065Z,13.40
2019-02-25T06:20:18.016Z,15.07
2019-02-25T06:22:46.498Z,14.20
2019-02-25T06:25:16.013Z,12.67
2019-02-25T06:27:44.497Z,14.10
2019-02-25T06:30:18.080Z,18.33
2019-02-25T06:32:46.493Z,14.63
2019-02-25T06:35:14.908Z,14.80
2019-02-25T06:37:43.336Z,13.53
2019-02-25T06:40:15.554Z,14.23
2019-02-25T06:42:44.531Z,13.97
2019-02-25T06:45:20.951Z,16.90
2019-02-25T06:47:49.379Z,14.17
2019-02-25T06:50:17.804Z,14.43
2019-02-25T06:52:46.243Z,15.07
2019-02-25T06:55:15.892Z,16.77
2019-02-25T06:57:44.462Z,13.67
2019-02-25T07:00:19.847Z,15.17
2019-02-25T07:02:48.296Z,14.67
2019-02-25T07:05:30.023Z,13.27
2019-02-25T07:08:02.820Z,15.17
2019-02-25T07:10:38.539Z,15.13
2019-02-25T07:13:11.543Z,12.53
2019-02-25T07:15:59.734Z,14.67
2019-02-25T07:18:29.795Z,15.07
2019-02-25T07:21:02.526Z,15.47
2019-02-25T07:23:50.656Z,18.53
2019-02-25T07:26:23.644Z,16.47
2019-02-25T07:28:53.703Z,17.23
2019-02-25T07:31:41.966Z,16.57
2019-02-25T07:34:20.571Z,15.93
2019-02-25T07:36:50.649Z,15.43
2019-02-25T07:39:36.903Z,13.77
2019-02-25T07:42:19.040Z,12.63
2019-02-25T07:44:55.060Z,14.67
2019-02-25T07:47:25.130Z,13.37
2019-02-25T07:49:55.179Z,14.93
2019-02-25T07:52:25.247Z,15.90
2019-02-25T07:55:00.992Z,15.43
2019-02-25T07:57:31.064Z,12.13
2019-02-25T08:00:01.148Z,14.60
2019-02-25T08:02:37.227Z,15.77
2019-02-25T08:05:11.830Z,14.00
2019-02-25T08:07:41.899Z,14.87
2019-02-25T08:10:14.383Z,15.60
2019-02-25T08:12:44.451Z,14.23
2019-02-25T08:15:23.450Z,18.07
2019-02-25T08:18:02.459Z,16.53
2019-02-25T08:20:35.471Z,14.23
2019-02-25T08:23:20.547Z,14.47
2019-02-25T08:26:06.619Z,18.43
2019-02-25T08:28:36.690Z,20.53
2019-02-25T08:31:15.763Z,18.10
2019-02-25T08:33:45.831Z,15.60
2019-02-25T08:36:41.519Z,18.23
2019-02-25T08:39:14.460Z,14.23
2019-02-25T08:41:44.443Z,23.37
2019-02-25T08:44:17.194Z,15.83
2019-02-25T08:46:47.255Z,14.30
2019-02-25T08:49:17.327Z,13.47
2019-02-25T08:51:45.752Z,16.20
2019-02-25T08:54:14.211Z,16.80
2019-02-25T08:56:45.451Z,17.27
2019-02-25T08:59:13.885Z,17.07
2019-02-25T09:01:42.307Z,15.17
2019-02-25T09:04:10.751Z,17.13
2019-02-25T09:06:39.175Z,14.67
2019-02-25T09:09:07.616Z,16.80
2019-02-25T09:11:36.048Z,16.20
2019-02-25T09:14:04.648Z,17.93
2019-02-25T09:16:33.071Z,20.52
2019-02-25T09:19:01.507Z,14.63
2019-02-25T09:21:32.080Z,17.93
2019-02-25T09:24:00.207Z,17.77
2019-02-25T09:26:28.635Z,20.23
2019-02-25T09:28:57.504Z,16.67
2019-02-25T09:31:26.088Z,17.67
2019-02-25T09:33:54.511Z,17.60
2019-02-25T09:36:22.947Z,20.70
2019-02-25T09:38:51.379Z,21.13
2019-02-25T09:41:19.825Z,18.33
2019-02-25T09:43:48.256Z,20.53
2019-02-25T09:46:16.699Z,21.87
2019-02-25T09:48:45.131Z,17.73
2019-02-25T09:51:13.565Z,20.37
2019-02-25T09:53:41.987Z,20.60
2019-02-25T09:56:10.423Z,19.77
2019-02-25T09:58:38.849Z,20.67
2019-02-25T10:01:07.351Z,20.33
2019-02-25T10:03:35.777Z,18.93
2019-02-25T10:06:04.219Z,23.77
2019-02-25T10:08:32.660Z,23.30
2019-02-25T10:11:01.112Z,22.20
2019-02-25T10:13:29.539Z,20.60
2019-02-25T10:15:57.981Z,24.53
2019-02-25T10:18:26.416Z,19.87
2019-02-25T10:20:54.862Z,22.17
2019-02-25T10:23:23.280Z,18.80
2019-02-25T10:25:51.723Z,19.27
2019-02-25T10:28:20.160Z,20.40
2019-02-25T10:30:52.743Z,20.97
2019-02-25T10:33:18.751Z,21.00
2019-02-25T10:35:47.195Z,33.37
2019-02-25T10:38:15.628Z,20.63
2019-02-25T10:40:45.398Z,21.10
2019-02-25T10:43:14.230Z,22.63
2019-02-25T10:45:43.381Z,21.27
2019-02-25T10:48:12.800Z,20.23
2019-02-25T10:50:41.236Z,21.03
2019-02-25T10:53:10.983Z,17.70
2019-02-25T10:56:00.725Z,23.27
2019-02-25T10:58:31.090Z,19.20
2019-02-25T11:00:59.307Z,20.33
2019-02-25T11:03:27.751Z,19.80
2019-02-25T11:05:56.872Z,19.00
2019-02-25T11:08:26.417Z,19.13
2019-02-25T11:13:44.026Z,20.93
2019-02-25T11:16:13.984Z,22.07
2019-02-25T11:18:42.631Z,18.37
2019-02-25T11:21:11.055Z,19.70
2019-02-25T11:23:39.551Z,18.73
2019-02-25T11:26:09.333Z,20.17
2019-02-25T11:28:39.202Z,17.50
2019-02-25T11:31:08.111Z,18.53
2019-02-25T11:33:36.596Z,17.77
2019-02-25T11:36:05.095Z,20.10
2019-02-25T11:38:37.074Z,21.93
2019-02-25T11:41:04.807Z,20.53
2019-02-25T11:43:33.865Z,19.53
2019-02-25T11:46:02.385Z,19.80
2019-02-25T11:48:30.829Z,20.20
2019-02-25T11:50:59.263Z,20.90
2019-02-25T11:53:27.707Z,16.90
2019-02-25T11:55:56.147Z,19.50
2019-02-25T11:58:24.606Z,20.87
2019-02-25T12:00:53.031Z,19.97
2019-02-25T12:03:21.669Z,21.03
2019-02-25T12:05:50.096Z,21.80
2019-02-25T12:08:18.531Z,20.43
2019-02-25T12:10:46.968Z,22.10
2019-02-25T12:13:15.407Z,21.40
2019-02-25T12:15:43.835Z,17.43
2019-02-25T12:18:12.284Z,21.73
2019-02-25T12:20:40.707Z,20.77
2019-02-25T12:23:09.160Z,22.63
2019-02-25T12:25:37.591Z,22.37
2019-02-25T12:28:06.023Z,27.07
2019-02-25T12:30:34.473Z,20.57
2019-02-25T12:33:02.927Z,21.13
2019-02-25T12:35:31.370Z,23.23
2019-02-25T12:37:59.891Z,24.83
2019-02-25T12:40:28.331Z,20.33
2019-02-25T12:42:56.843Z,20.73
2019-02-25T12:45:25.351Z,20.40
2019-02-25T12:47:53.800Z,21.83
2019-02-25T12:50:22.222Z,23.50
2019-02-25T12:52:50.657Z,23.40
2019-02-25T12:55:19.920Z,22.57
2019-02-25T12:57:48.342Z,21.47
2019-02-25T13:00:17.621Z,25.53
2019-02-25T13:02:46.043Z,22.20
2019-02-25T13:05:22.440Z,22.17
2019-02-25T13:07:51.815Z,19.77
2019-02-25T13:10:20.368Z,22.27
2019-02-25T13:12:48.851Z,23.13
2019-02-25T13:15:20.376Z,26.50
2019-02-25T13:17:48.810Z,21.10
2019-02-25T13:20:17.385Z,20.40
2019-02-25T13:22:45.813Z,20.27
2019-02-25T13:25:27.867Z,19.93
2019-02-25T13:27:56.931Z,20.87
2019-02-25T13:30:26.452Z,20.93
2019-02-25T13:32:54.963Z,19.20
2019-02-25T13:35:23.481Z,20.90
2019-02-25T13:37:51.975Z,20.23
2019-02-25T13:40:20.427Z,20.33
2019-02-25T13:42:49.134Z,19.07
2019-02-25T13:45:23.272Z,18.87
2019-02-25T13:47:51.866Z,18.23
2019-02-25T13:50:20.375Z,21.07
2019-02-25T13:52:49.130Z,20.20
2019-02-25T13:55:18.772Z,20.57
2019-02-25T13:57:47.281Z,20.60
2019-02-25T14:00:18.171Z,21.00
2019-02-25T14:02:47.108Z,19.40
2019-02-25T14:05:15.898Z,18.37
2019-02-25T14:07:44.423Z,18.37
2019-02-25T14:10:17.079Z,18.67
2019-02-25T14:12:45.747Z,22.33
2019-02-25T14:15:20.983Z,19.90
2019-02-25T14:17:49.487Z,21.43
2019-02-25T14:20:20.600Z,19.87
2019-02-25T14:22:49.124Z,25.10
2019-02-25T14:25:20.486Z,19.23
2019-02-25T14:27:48.996Z,20.73
2019-02-25T14:30:20.585Z,19.53
2019-02-25T14:32:53.014Z,19.83
2019-02-25T14:35:22.068Z,20.23
2019-02-25T14:37:50.635Z,21.97
2019-02-25T14:40:21.735Z,19.63
2019-02-25T14:42:52.019Z,25.10
2019-02-25T14:45:21.834Z,19.47
2019-02-25T14:47:55.327Z,19.30
2019-02-25T14:50:22.631Z,23.93
2019-02-25T14:52:52.119Z,23.67
2019-02-25T14:55:20.827Z,22.17
2019-02-25T14:57:49.256Z,24.50
2019-02-25T15:00:29.156Z,20.07
2019-02-25T15:02:57.103Z,21.73
2019-02-25T15:05:25.772Z,23.30
2019-02-25T15:07:54.196Z,19.83
2019-02-25T15:10:26.649Z,22.10
2019-02-25T15:12:56.507Z,20.13
2019-02-25T15:15:24.078Z,21.20
2019-02-25T15:17:52.715Z,24.03
2019-02-25T15:20:23.371Z,23.30
2019-02-25T15:22:52.619Z,21.60
2019-02-25T15:25:22.084Z,20.63
2019-02-25T15:27:50.646Z,23.80
2019-02-25T15:30:30.783Z,22.17
2019-02-25T15:32:59.969Z,22.53
2019-02-25T15:35:31.784Z,20.23
2019-02-25T15:38:00.326Z,19.67
2019-02-25T15:40:29.142Z,21.47
2019-02-25T15:43:15.946Z,20.83
2019-02-25T15:45:44.346Z,23.10
2019-02-25T15:48:17.818Z,24.70
2019-02-25T15:50:48.427Z,21.97
2019-02-25T15:53:16.723Z,21.97
2019-02-25T15:55:45.264Z,23.27
2019-02-25T15:58:14.338Z,22.87
2019-02-25T16:00:43.987Z,27.53
2019-02-25T16:03:13.752Z,22.60
2019-02-25T16:05:43.573Z,21.17
2019-02-25T16:08:16.253Z,20.80
2019-02-25T16:10:43.163Z,25.60
2019-02-25T16:13:14.171Z,23.73
2019-02-25T16:15:42.065Z,20.63
2019-02-25T16:18:13.677Z,22.50
2019-02-25T16:20:40.907Z,22.90
2019-02-25T16:23:09.680Z,22.57
2019-02-25T16:25:39.565Z,23.50
2019-02-25T16:28:08.735Z,19.00
2019-02-25T16:30:39.908Z,22.63
2019-02-25T16:33:10.011Z,23.37
2019-02-25T16:35:38.991Z,22.60
2019-02-25T16:38:08.731Z,24.17
2019-02-25T16:40:38.363Z,23.53
2019-02-25T16:43:09.757Z,24.80
2019-02-25T16:45:39.531Z,24.27
2019-02-25T16:48:07.965Z,21.47
2019-02-25T16:50:36.782Z,24.97
2019-02-25T16:53:08.069Z,23.03
2019-02-25T16:55:36.331Z,25.20
2019-02-25T16:58:06.942Z,28.07
2019-02-25T17:00:37.061Z,25.00
2019-02-25T17:03:06.569Z,24.90
2019-02-25T17:05:37.525Z,27.00
2019-02-25T17:08:08.171Z,28.63
2019-02-25T17:10:36.636Z,25.23
2019-02-25T17:13:05.934Z,23.77
2019-02-25T17:15:35.289Z,25.00
2019-02-25T17:18:03.899Z,28.40
2019-02-25T17:20:32.491Z,24.03
2019-02-25T17:23:00.929Z,25.50
2019-02-25T17:25:31.690Z,28.43
2019-02-25T17:27:59.603Z,24.77
2019-02-25T17:30:29.002Z,27.17
2019-02-25T17:32:57.785Z,24.67
2019-02-25T17:35:28.898Z,29.67
2019-02-25T17:37:58.950Z,27.00
2019-02-25T17:40:27.420Z,29.47
2019-02-25T17:42:56.442Z,25.50
2019-02-25T17:45:32.480Z,26.93
2019-02-25T17:48:03.490Z,27.47
2019-02-25T17:50:33.036Z,27.80
2019-02-25T17:53:03.013Z,26.97
2019-02-25T17:55:33.771Z,35.20
2019-02-25T17:58:02.016Z,31.50
2019-02-25T18:00:42.412Z,31.83
2019-02-25T18:03:11.047Z,31.77
2019-02-25T18:05:40.672Z,32.10
2019-02-25T18:08:13.336Z,35.73
2019-02-25T18:10:43.176Z,34.13
2019-02-25T18:13:11.964Z,33.60
2019-02-25T18:15:40.660Z,29.83
2019-02-25T18:18:11.753Z,31.10
2019-02-25T18:20:39.251Z,27.63
2019-02-25T18:23:07.865Z,36.33
2019-02-25T18:25:37.754Z,30.70
2019-02-25T18:28:08.386Z,29.43
2019-02-25T18:30:36.738Z,28.60
2019-02-25T18:33:05.516Z,28.27
2019-02-25T18:35:36.239Z,28.93
2019-02-25T18:38:06.569Z,34.33
2019-02-25T18:40:35.888Z,26.73
2019-02-25T18:43:06.516Z,28.40
2019-02-25T18:45:35.626Z,29.40
2019-02-25T18:48:05.908Z,26.27
2019-02-25T18:50:34.573Z,25.63
2019-02-25T18:53:03.063Z,27.17
2019-02-25T18:55:33.968Z,29.23
2019-02-25T18:58:01.711Z,27.00
2019-02-25T19:00:35.952Z,30.37
2019-02-25T19:03:05.387Z,30.33
2019-02-25T19:05:34.041Z,27.30
2019-02-25T19:08:04.948Z,29.80
2019-02-25T19:10:33.376Z,29.00
2019-02-25T19:13:02.087Z,28.00
2019-02-25T19:15:30.692Z,28.27
2019-02-25T19:17:59.231Z,29.93
2019-02-25T19:20:27.817Z,31.17
2019-02-25T19:23:00.392Z,28.63
2019-02-25T19:25:26.493Z,26.50
2019-02-25T19:27:56.694Z,27.47
2019-02-25T19:30:27.267Z,26.63
2019-02-25T19:32:55.436Z,156.00
2019-02-25T19:35:27.776Z,220.97
2019-02-25T19:37:54.270Z,28.57
2019-02-25T19:40:24.691Z,29.70
2019-02-25T19:42:54.198Z,26.10
2019-02-25T19:45:23.916Z,27.97
2019-02-25T19:47:55.358Z,29.60
2019-02-25T19:50:25.946Z,29.37
2019-02-25T19:52:54.354Z,26.47
2019-02-25T19:55:23.579Z,29.07
2019-02-25T19:57:54.144Z,29.33
2019-02-25T20:00:30.224Z,26.43
2019-02-25T20:03:05.514Z,28.83
2019-02-25T20:05:33.072Z,26.57
2019-02-25T20:08:01.425Z,25.10
2019-02-25T20:10:30.754Z,28.87
2019-02-25T20:13:00.531Z,27.15
2019-02-25T20:15:31.031Z,28.40
2019-02-25T20:17:59.830Z,24.40
2019-02-25T20:20:34.655Z,27.33
2019-02-25T20:23:06.160Z,28.63
2019-02-25T20:25:35.768Z,26.27
2019-02-25T20:28:09.091Z,25.72
2019-02-25T20:30:37.978Z,25.37
2019-02-25T20:33:10.995Z,27.53
2019-02-25T20:35:55.829Z,29.53
2019-02-25T20:38:29.443Z,57.70
2019-02-25T20:41:02.362Z,28.77
2019-02-25T20:43:36.857Z,28.17
2019-02-25T20:46:08.747Z,23.90
2019-02-25T20:48:39.258Z,29.03
2019-02-25T20:51:11.785Z,25.10
2019-02-25T20:53:40.127Z,25.73
2019-02-25T20:56:10.509Z,27.73
2019-02-25T20:58:42.553Z,24.90
2019-02-25T21:01:12.086Z,27.10
2019-02-25T21:03:43.891Z,23.43
2019-02-25T21:06:12.689Z,24.30
2019-02-25T21:08:42.351Z,24.77
2019-02-25T21:11:13.468Z,23.47
2019-02-25T21:13:42.040Z,26.77
2019-02-25T21:16:10.701Z,28.70
2019-02-25T21:18:39.135Z,23.63
2019-02-25T21:21:09.395Z,28.37
2019-02-25T21:23:37.759Z,27.90
2019-02-25T21:26:07.401Z,27.70
2019-02-25T21:28:38.037Z,28.37
2019-02-25T21:31:09.801Z,25.77
2019-02-25T21:33:36.791Z,28.27
2019-02-25T21:36:05.337Z,26.07
2019-02-25T21:38:33.789Z,25.83
2019-02-25T21:41:02.238Z,26.63
2019-02-25T21:43:30.679Z,27.37
2019-02-25T21:46:01.483Z,24.30
2019-02-25T21:48:31.840Z,29.33
2019-02-25T21:51:02.264Z,26.60
2019-02-25T21:53:29.741Z,26.93
2019-02-25T21:56:02.432Z,24.80
2019-02-25T21:58:28.402Z,26.87
2019-02-25T22:00:56.859Z,25.80
2019-02-25T22:03:25.294Z,28.40
2019-02-25T22:05:55.729Z,25.97
2019-02-25T22:08:24.355Z,25.93
2019-02-25T22:10:54.089Z,30.13
2019-02-25T22:13:23.040Z,24.07
2019-02-25T22:15:51.486Z,29.67
2019-02-25T22:18:20.000Z,26.90
2019-02-25T22:20:49.374Z,25.73
2019-02-25T22:23:21.989Z,26.73
2019-02-25T22:25:48.792Z,27.30
2019-02-25T22:28:17.239Z,23.63
2019-02-25T22:30:47.392Z,26.43
2019-02-25T22:33:26.993Z,24.13
2019-02-25T22:35:47.533Z,25.47
2019-02-25T22:38:17.849Z,25.03
2019-02-25T22:40:46.459Z,29.97
2019-02-25T22:43:18.736Z,28.67
2019-02-25T22:45:48.021Z,25.57
2019-02-25T22:48:18.582Z,26.50
2019-02-25T22:50:46.708Z,24.03
2019-02-25T22:53:15.209Z,22.83
2019-02-25T22:55:44.936Z,25.80
2019-02-25T22:58:14.952Z,23.77
2019-02-25T23:00:48.323Z,25.80
2019-02-25T23:03:18.517Z,24.57
2019-02-25T23:05:48.683Z,25.50
2019-02-25T23:08:18.188Z,25.43
2019-02-25T23:10:49.214Z,26.30
2019-02-25T23:13:19.842Z,26.57
2019-02-25T23:15:49.436Z,23.87
2019-02-25T23:18:21.507Z,23.60
2019-02-25T23:20:50.332Z,21.77
2019-02-25T23:23:20.976Z,26.40
2019-02-25T23:25:49.123Z,25.13
2019-02-25T23:28:20.555Z,23.53
2019-02-25T23:30:49.023Z,22.53
2019-02-25T23:33:19.117Z,23.60
2019-02-25T23:35:49.198Z,24.47
2019-02-25T23:38:18.281Z,20.10
2019-02-25T23:40:47.136Z,21.63
2019-02-25T23:43:17.286Z,24.97
2019-02-25T23:45:46.523Z,20.80
2019-02-25T23:48:14.981Z,23.50
2019-02-25T23:50:43.419Z,21.27
2019-02-25T23:53:11.866Z,22.50
2019-02-25T23:55:43.160Z,23.03
2019-02-25T23:58:12.507Z,23.50
